createdAt,value
2022-11-24T00:00:38.112Z,70.10
2022-11-24T00:03:05.716Z,70.10
2022-11-24T00:05:35.943Z,70.10
2022-11-24T00:08:03.652Z,70.20
2022-11-24T00:10:31.144Z,70.20
2022-11-24T00:12:58.764Z,70.20
2022-11-24T00:15:26.358Z,70.20
2022-11-24T00:17:55.414Z,70.20
2022-11-24T00:20:22.946Z,70.10
2022-11-24T00:22:50.455Z,70.10
2022-11-24T00:25:18.170Z,70.10
2022-11-24T00:27:45.727Z,70.10
2022-11-24T00:30:13.656Z,70.20
2022-11-24T00:32:41.138Z,70.20
2022-11-24T00:35:10.089Z,70.30
2022-11-24T00:37:37.582Z,70.20
2022-11-24T00:40:06.080Z,70.20
2022-11-24T00:42:33.697Z,70.10
2022-11-24T00:45:12.912Z,70.10
2022-11-24T00:47:41.873Z,70.00
2022-11-24T00:50:11.169Z,70.00
2022-11-24T00:52:38.692Z,70.00
2022-11-24T00:55:06.674Z,70.10
2022-11-24T00:57:35.858Z,70.00
2022-11-24T01:00:03.598Z,70.00
2022-11-24T01:02:31.244Z,70.00
2022-11-24T01:04:58.767Z,69.90
2022-11-24T01:07:27.762Z,69.90
2022-11-24T01:09:55.335Z,69.90
2022-11-24T01:12:22.851Z,69.90
2022-11-24T01:14:50.377Z,69.80
2022-11-24T01:17:18.476Z,69.80
2022-11-24T01:19:46.096Z,69.80
2022-11-24T01:22:13.690Z,69.80
2022-11-24T01:24:42.702Z,69.70
2022-11-24T01:27:10.263Z,69.70
2022-11-24T01:29:37.806Z,69.70
2022-11-24T01:32:05.600Z,69.60
2022-11-24T01:34:33.338Z,69.50
2022-11-24T01:37:01.352Z,69.50
2022-11-24T01:39:28.804Z,69.50
2022-11-24T01:42:00.782Z,69.50
2022-11-24T01:44:29.577Z,69.40
2022-11-24T01:46:59.373Z,69.50
2022-11-24T01:49:31.656Z,69.30
2022-11-24T01:52:01.554Z,69.30
2022-11-24T01:54:30.188Z,69.30
2022-11-24T01:57:01.042Z,69.30
2022-11-24T01:59:28.613Z,69.30
2022-11-24T02:01:56.282Z,69.30
2022-11-24T02:04:26.201Z,69.20
2022-11-24T02:06:53.794Z,69.20
2022-11-24T02:09:23.468Z,69.20
2022-11-24T02:11:51.094Z,69.20
2022-11-24T02:14:20.058Z,69.20
2022-11-24T02:16:49.827Z,69.20
2022-11-24T02:19:22.273Z,69.20
2022-11-24T02:21:49.763Z,69.20
2022-11-24T02:24:19.413Z,69.20
2022-11-24T02:26:48.554Z,69.20
2022-11-24T02:29:16.118Z,69.10
2022-11-24T02:31:46.920Z,69.10
2022-11-24T02:34:14.445Z,69.00
2022-11-24T02:36:42.034Z,69.00
2022-11-24T02:39:11.373Z,69.00
2022-11-24T02:41:38.856Z,68.90
2022-11-24T02:44:07.954Z,68.90
2022-11-24T02:46:35.712Z,68.90
2022-11-24T02:49:03.293Z,68.90
2022-11-24T02:51:31.042Z,68.80
2022-11-24T02:53:58.523Z,68.90
2022-11-24T02:56:26.395Z,68.90
2022-11-24T02:58:54.021Z,68.80
2022-11-24T03:01:23.105Z,68.70
2022-11-24T03:03:50.731Z,68.70
2022-11-24T03:06:18.242Z,68.70
2022-11-24T03:08:45.801Z,68.60
2022-11-24T03:11:13.361Z,68.60
2022-11-24T03:13:40.937Z,68.60
2022-11-24T03:16:09.245Z,68.60
2022-11-24T03:18:38.369Z,68.60
2022-11-24T03:21:06.261Z,68.60
2022-11-24T03:23:33.679Z,68.70
2022-11-24T03:26:08.113Z,68.70
2022-11-24T03:28:35.678Z,68.60
2022-11-24T03:31:03.290Z,68.70
2022-11-24T03:33:30.834Z,68.70
2022-11-24T03:35:59.830Z,68.60
2022-11-24T03:38:27.357Z,68.60
2022-11-24T03:40:54.800Z,68.60
2022-11-24T03:43:22.397Z,68.70
2022-11-24T03:45:49.973Z,68.70
2022-11-24T03:48:17.802Z,68.70
2022-11-24T03:50:52.048Z,68.80
2022-11-24T03:53:21.044Z,68.80
2022-11-24T03:55:48.563Z,68.90
2022-11-24T03:58:16.089Z,69.00
2022-11-24T04:00:43.606Z,69.00
2022-11-24T04:03:11.138Z,69.10
2022-11-24T04:05:38.772Z,69.10
2022-11-24T04:08:06.549Z,69.20
2022-11-24T04:10:36.194Z,70.00
2022-11-24T04:13:03.741Z,69.30
2022-11-24T04:15:31.265Z,69.40
2022-11-24T04:17:58.811Z,69.40
2022-11-24T04:20:26.390Z,69.50
2022-11-24T04:22:53.941Z,69.50
2022-11-24T04:25:21.459Z,69.50
2022-11-24T04:27:52.473Z,69.50
2022-11-24T04:30:20.231Z,69.40
2022-11-24T04:32:47.865Z,69.50
2022-11-24T04:35:15.459Z,69.50
2022-11-24T04:37:43.107Z,69.50
2022-11-24T04:40:11.108Z,69.50
2022-11-24T04:42:38.585Z,69.50
2022-11-24T04:45:08.399Z,69.50
2022-11-24T04:47:35.914Z,69.50
2022-11-24T04:50:03.553Z,69.60
2022-11-24T04:52:31.162Z,69.60
2022-11-24T04:54:58.724Z,69.60
2022-11-24T04:57:26.762Z,69.60
2022-11-24T04:59:54.280Z,69.60
2022-11-24T05:02:23.529Z,69.60
2022-11-24T05:04:51.055Z,69.60
2022-11-24T05:07:19.468Z,69.60
2022-11-24T05:09:58.813Z,69.60
2022-11-24T05:12:27.608Z,69.60
2022-11-24T05:14:55.064Z,70.40
2022-11-24T05:17:24.130Z,69.60
2022-11-24T05:19:51.731Z,69.70
2022-11-24T05:22:19.290Z,69.80
2022-11-24T05:24:46.847Z,69.80
2022-11-24T05:27:14.355Z,70.00
2022-11-24T05:29:41.892Z,70.00
2022-11-24T05:32:09.445Z,70.00
2022-11-24T05:34:38.609Z,70.10
2022-11-24T05:37:06.138Z,70.20
2022-11-24T05:39:33.687Z,70.20
2022-11-24T05:42:02.253Z,70.30
2022-11-24T05:44:29.806Z,70.40
2022-11-24T05:46:57.389Z,70.50
2022-11-24T05:49:25.002Z,70.50
2022-11-24T05:51:54.076Z,70.60
2022-11-24T05:54:21.552Z,70.70
2022-11-24T05:56:49.199Z,70.80
2022-11-24T05:59:16.709Z,70.80
2022-11-24T06:01:44.262Z,70.90
2022-11-24T06:04:12.008Z,70.90
2022-11-24T06:06:40.061Z,70.90
2022-11-24T06:09:09.013Z,70.90
2022-11-24T06:11:36.589Z,70.80
2022-11-24T06:14:08.321Z,70.90
2022-11-24T06:16:38.670Z,70.80
2022-11-24T06:19:06.258Z,70.70
2022-11-24T06:21:33.799Z,70.60
2022-11-24T06:24:01.495Z,70.50
2022-11-24T06:26:30.511Z,70.40
2022-11-24T06:28:58.101Z,70.30
2022-11-24T06:31:25.738Z,70.30
2022-11-24T06:33:53.240Z,70.20
2022-11-24T06:36:20.853Z,70.20
2022-11-24T06:38:48.336Z,70.10
2022-11-24T06:41:16.433Z,70.10
2022-11-24T06:43:45.429Z,70.20
2022-11-24T06:46:13.070Z,70.20
2022-11-24T06:48:40.604Z,70.20
2022-11-24T06:51:09.357Z,70.10
2022-11-24T06:53:37.443Z,70.20
2022-11-24T06:56:06.693Z,70.20
2022-11-24T06:58:35.863Z,70.20
2022-11-24T07:01:04.935Z,70.20
2022-11-24T07:03:32.661Z,70.20
2022-11-24T07:06:00.361Z,70.40
2022-11-24T07:08:29.019Z,70.40
2022-11-24T07:10:56.531Z,70.40
2022-11-24T07:13:24.053Z,70.40
2022-11-24T07:15:51.573Z,71.20
2022-11-24T07:18:20.571Z,70.30
2022-11-24T07:20:48.204Z,70.20
2022-11-24T07:23:15.771Z,70.20
2022-11-24T07:25:43.358Z,70.20
2022-11-24T07:28:10.936Z,71.00
2022-11-24T07:30:38.500Z,70.20
2022-11-24T07:33:06.106Z,70.30
2022-11-24T07:35:35.176Z,70.30
2022-11-24T07:38:02.727Z,70.30
2022-11-24T07:40:30.322Z,70.40
2022-11-24T07:43:00.191Z,70.30
2022-11-24T07:45:27.888Z,70.40
2022-11-24T07:47:55.509Z,70.40
2022-11-24T07:50:23.125Z,70.40
2022-11-24T07:52:52.269Z,70.40
2022-11-24T07:55:19.720Z,70.30
2022-11-24T07:57:47.284Z,70.40
2022-11-24T08:00:15.315Z,70.40
2022-11-24T08:02:43.939Z,70.40
2022-11-24T08:05:11.516Z,70.50
2022-11-24T08:07:39.103Z,70.40
2022-11-24T08:10:09.648Z,70.40
2022-11-24T08:12:37.119Z,70.50
2022-11-24T08:15:10.915Z,70.50
2022-11-24T08:17:39.094Z,70.50
2022-11-24T08:20:08.609Z,70.50
2022-11-24T08:22:36.233Z,70.60
2022-11-24T08:25:03.914Z,70.50
2022-11-24T08:27:32.900Z,70.60
2022-11-24T08:30:00.465Z,70.50
2022-11-24T08:32:28.171Z,70.60
2022-11-24T08:34:59.611Z,70.50
2022-11-24T08:37:36.688Z,70.50
2022-11-24T08:40:04.842Z,70.60
2022-11-24T08:42:33.859Z,70.60
2022-11-24T08:45:17.475Z,70.50
2022-11-24T08:47:52.562Z,70.60
2022-11-24T08:50:20.309Z,70.60
2022-11-24T08:52:47.844Z,70.60
2022-11-24T08:55:15.522Z,70.60
2022-11-24T08:57:44.514Z,70.60
2022-11-24T09:00:14.075Z,70.60
2022-11-24T09:02:41.666Z,70.60
2022-11-24T09:05:28.839Z,70.70
2022-11-24T09:07:57.224Z,70.80
2022-11-24T09:10:24.823Z,71.00
2022-11-24T09:12:53.965Z,71.30
2022-11-24T09:15:21.444Z,71.30
2022-11-24T09:17:49.023Z,71.60
2022-11-24T09:20:17.323Z,72.50
2022-11-24T09:22:44.914Z,73.00
2022-11-24T09:25:12.504Z,73.50
2022-11-24T09:27:40.001Z,73.90
2022-11-24T09:30:11.381Z,74.10
2022-11-24T09:32:38.894Z,74.40
2022-11-24T09:35:06.917Z,74.40
2022-11-24T09:37:34.532Z,74.40
2022-11-24T09:40:02.068Z,74.50
2022-11-24T09:42:36.940Z,74.50
2022-11-24T09:45:14.762Z,74.60
2022-11-24T09:47:55.526Z,74.50
2022-11-24T09:50:23.986Z,74.60
2022-11-24T09:52:54.056Z,74.50
2022-11-24T09:55:42.537Z,74.40
2022-11-24T09:58:29.958Z,74.60
2022-11-24T10:00:59.032Z,74.60
2022-11-24T10:03:28.211Z,74.60
2022-11-24T10:05:55.800Z,74.60
2022-11-24T10:08:31.057Z,74.40
2022-11-24T10:10:59.612Z,74.20
2022-11-24T10:13:39.176Z,74.30
2022-11-24T10:16:11.335Z,74.60
2022-11-24T10:18:45.707Z,74.30
2022-11-24T10:21:34.681Z,74.20
2022-11-24T10:24:19.677Z,74.10
2022-11-24T10:26:51.213Z,74.00
2022-11-24T10:29:21.499Z,74.00
2022-11-24T10:31:52.228Z,74.00
2022-11-24T10:34:23.046Z,73.90
2022-11-24T10:36:54.550Z,74.00
2022-11-24T10:39:23.800Z,74.20
2022-11-24T10:41:53.101Z,74.20
2022-11-24T10:44:20.662Z,74.30
2022-11-24T10:46:49.884Z,74.20
2022-11-24T10:49:19.620Z,74.20
2022-11-24T10:52:05.768Z,74.10
2022-11-24T10:54:33.348Z,74.10
2022-11-24T10:57:00.956Z,74.00
2022-11-24T10:59:34.893Z,74.00
2022-11-24T11:02:09.646Z,73.80
2022-11-24T11:04:37.485Z,73.80
2022-11-24T11:07:18.298Z,73.60
2022-11-24T11:09:46.032Z,73.60
2022-11-24T11:12:42.823Z,73.40
2022-11-24T11:15:32.092Z,73.40
2022-11-24T11:18:01.273Z,73.30
2022-11-24T11:20:30.564Z,73.40
2022-11-24T11:22:59.728Z,73.30
2022-11-24T11:25:30.644Z,73.20
2022-11-24T11:28:26.884Z,73.10
2022-11-24T11:31:18.974Z,73.10
2022-11-24T11:34:04.252Z,73.10
2022-11-24T11:36:33.804Z,73.10
2022-11-24T11:39:01.387Z,73.10
2022-11-24T11:41:32.956Z,73.00
2022-11-24T11:44:15.497Z,72.90
2022-11-24T11:46:43.174Z,72.80
2022-11-24T11:49:13.116Z,72.90
2022-11-24T11:51:48.559Z,72.80
2022-11-24T11:54:21.884Z,72.70
2022-11-24T11:56:50.756Z,72.60
2022-11-24T11:59:48.313Z,72.70
2022-11-24T12:02:52.923Z,72.50
2022-11-24T12:05:28.179Z,72.50
2022-11-24T12:08:10.807Z,72.60
2022-11-24T12:10:42.236Z,72.50
2022-11-24T12:13:34.466Z,72.50
2022-11-24T12:16:07.620Z,72.20
2022-11-24T12:18:58.770Z,72.30
2022-11-24T12:21:32.152Z,72.30
2022-11-24T12:24:08.664Z,72.20
2022-11-24T12:26:40.775Z,72.10
2022-11-24T12:29:38.070Z,72.10
2022-11-24T12:32:10.565Z,72.00
2022-11-24T12:34:44.550Z,72.00
2022-11-24T12:37:26.529Z,71.90
2022-11-24T12:39:59.555Z,71.90
2022-11-24T12:42:32.848Z,72.10
2022-11-24T12:45:13.294Z,71.90
2022-11-24T12:47:59.976Z,71.90
2022-11-24T12:50:28.380Z,71.90
2022-11-24T12:52:58.996Z,71.80
2022-11-24T12:55:28.992Z,71.70
2022-11-24T12:57:59.827Z,71.60
2022-11-24T13:00:30.312Z,71.60
2022-11-24T13:03:12.510Z,71.60
2022-11-24T13:05:46.358Z,71.60
2022-11-24T13:08:14.309Z,71.60
2022-11-24T13:10:58.579Z,71.60
2022-11-24T13:13:29.835Z,71.60
2022-11-24T13:19:02.798Z,71.50
2022-11-24T13:21:53.422Z,71.70
2022-11-24T13:24:26.273Z,71.80
2022-11-24T13:27:16.345Z,71.70
2022-11-24T13:29:44.064Z,71.60
2022-11-24T13:32:50.804Z,71.50
2022-11-24T13:35:18.519Z,71.30
2022-11-24T13:37:48.330Z,71.50
2022-11-24T13:40:54.170Z,71.40
2022-11-24T13:43:29.586Z,71.20
2022-11-24T13:45:57.291Z,71.50
2022-11-24T13:48:53.168Z,71.50
2022-11-24T13:51:24.386Z,71.20
2022-11-24T13:53:51.940Z,71.30
2022-11-24T13:56:36.959Z,71.30
2022-11-24T13:59:15.971Z,71.00
2022-11-24T14:01:43.659Z,71.10
2022-11-24T14:04:34.016Z,71.20
2022-11-24T14:07:07.774Z,71.10
2022-11-24T14:09:37.498Z,71.10
2022-11-24T14:12:08.655Z,71.10
2022-11-24T14:14:37.941Z,71.00
2022-11-24T14:17:13.731Z,71.00
2022-11-24T14:19:43.727Z,71.00
2022-11-24T14:22:15.980Z,70.90
2022-11-24T14:24:43.757Z,70.80
2022-11-24T14:27:14.511Z,70.90
2022-11-24T14:32:38.114Z,69.90
2022-11-24T14:35:21.323Z,70.90
2022-11-24T14:37:49.248Z,70.70
2022-11-24T14:40:38.368Z,70.80
2022-11-24T14:43:13.717Z,70.20
2022-11-24T14:45:53.855Z,70.60
2022-11-24T14:48:26.239Z,70.40
2022-11-24T14:50:54.010Z,70.40
2022-11-24T14:53:26.034Z,70.40
2022-11-24T14:56:08.703Z,70.20
2022-11-24T14:58:41.802Z,70.00
2022-11-24T15:01:11.738Z,69.90
2022-11-24T15:03:40.670Z,69.90
2022-11-24T15:06:15.976Z,69.80
2022-11-24T15:08:45.130Z,69.80
2022-11-24T15:11:12.830Z,69.80
2022-11-24T15:13:40.327Z,69.70
2022-11-24T15:16:09.468Z,69.60
2022-11-24T15:18:41.360Z,69.50
2022-11-24T15:21:11.677Z,69.40
2022-11-24T15:23:42.267Z,69.40
2022-11-24T15:26:30.580Z,69.30
2022-11-24T15:28:59.759Z,69.10
2022-11-24T15:31:27.419Z,69.10
2022-11-24T15:33:56.318Z,69.00
2022-11-24T15:36:23.873Z,69.10
2022-11-24T15:38:54.255Z,69.10
2022-11-24T15:41:24.169Z,69.10
2022-11-24T15:43:51.780Z,68.90
2022-11-24T15:46:19.191Z,68.90
2022-11-24T15:48:53.326Z,68.50
2022-11-24T15:51:23.208Z,68.30
2022-11-24T15:54:00.047Z,68.30
2022-11-24T15:56:35.316Z,68.30
2022-11-24T15:59:02.858Z,68.30
2022-11-24T16:01:31.860Z,68.30
2022-11-24T16:03:59.360Z,68.10
2022-11-24T16:06:28.344Z,68.10
2022-11-24T16:08:55.722Z,68.10
2022-11-24T16:11:25.548Z,68.10
2022-11-24T16:13:54.215Z,67.90
2022-11-24T16:16:22.002Z,67.80
2022-11-24T16:18:49.720Z,67.80
2022-11-24T16:21:17.282Z,67.70
2022-11-24T16:23:46.343Z,67.80
2022-11-24T16:26:13.697Z,67.70
2022-11-24T16:28:41.168Z,67.70
2022-11-24T16:31:09.037Z,67.80
2022-11-24T16:33:36.670Z,67.70
2022-11-24T16:36:04.733Z,67.70
2022-11-24T16:38:32.358Z,67.70
2022-11-24T16:41:05.284Z,67.70
2022-11-24T16:43:32.982Z,67.70
2022-11-24T16:46:05.180Z,67.70
2022-11-24T16:48:35.718Z,67.70
2022-11-24T16:51:06.045Z,67.70
2022-11-24T16:53:33.397Z,67.70
2022-11-24T16:56:02.686Z,67.70
2022-11-24T16:58:30.449Z,67.60
2022-11-24T17:01:03.826Z,67.70
2022-11-24T17:03:31.611Z,67.60
2022-11-24T17:05:59.763Z,67.70
2022-11-24T17:08:27.256Z,67.70
2022-11-24T17:10:54.626Z,67.70
2022-11-24T17:13:23.406Z,67.80
2022-11-24T17:15:54.507Z,67.80
2022-11-24T17:18:25.502Z,67.90
2022-11-24T17:20:53.308Z,68.00
2022-11-24T17:23:20.628Z,68.00
2022-11-24T17:25:48.528Z,68.00
2022-11-24T17:28:15.946Z,68.00
2022-11-24T17:30:45.730Z,68.00
2022-11-24T17:33:13.053Z,68.10
2022-11-24T17:35:40.620Z,68.20
2022-11-24T17:38:09.671Z,68.20
2022-11-24T17:40:37.003Z,68.50
2022-11-24T17:43:04.338Z,68.30
2022-11-24T17:45:31.695Z,68.40
2022-11-24T17:48:00.772Z,68.50
2022-11-24T17:50:28.488Z,68.50
2022-11-24T17:52:55.855Z,68.60
2022-11-24T17:55:23.411Z,68.60
2022-11-24T17:57:50.765Z,68.70
2022-11-24T18:00:19.136Z,68.70
2022-11-24T18:02:46.579Z,68.60
2022-11-24T18:05:15.824Z,68.60
2022-11-24T18:07:43.206Z,68.70
2022-11-24T18:10:11.489Z,68.70
2022-11-24T18:12:38.808Z,68.80
2022-11-24T18:15:07.494Z,68.90
2022-11-24T18:17:34.873Z,68.90
2022-11-24T18:20:02.473Z,68.90
2022-11-24T18:22:57.858Z,69.00
2022-11-24T18:25:18.903Z,69.00
2022-11-24T18:27:46.290Z,69.10
2022-11-24T18:30:14.106Z,69.10
2022-11-24T18:32:41.510Z,69.10
2022-11-24T18:35:09.688Z,69.10
2022-11-24T18:37:38.768Z,69.20
2022-11-24T18:40:08.284Z,69.20
2022-11-24T18:42:35.788Z,69.30
2022-11-24T18:45:03.583Z,69.30
2022-11-24T18:47:30.912Z,69.40
2022-11-24T18:49:58.493Z,69.50
2022-11-24T18:52:26.147Z,69.50
2022-11-24T18:54:55.176Z,69.50
2022-11-24T18:57:22.633Z,69.40
2022-11-24T18:59:50.062Z,69.40
2022-11-24T19:02:17.462Z,69.50
2022-11-24T19:04:44.843Z,69.60
2022-11-24T19:07:12.209Z,69.60
2022-11-24T19:09:39.541Z,69.50
2022-11-24T19:12:10.402Z,69.60
2022-11-24T19:14:38.472Z,69.60
2022-11-24T19:17:05.935Z,69.60
2022-11-24T19:19:33.530Z,69.50
2022-11-24T19:22:01.224Z,69.50
2022-11-24T19:24:28.995Z,69.50
2022-11-24T19:26:56.610Z,69.50
2022-11-24T19:29:25.526Z,69.50
2022-11-24T19:31:54.823Z,69.60
2022-11-24T19:34:22.485Z,69.60
2022-11-24T19:36:50.025Z,69.70
2022-11-24T19:39:17.473Z,69.80
2022-11-24T19:41:44.954Z,69.20
2022-11-24T19:44:12.579Z,70.00
2022-11-24T19:46:41.393Z,69.90
2022-11-24T19:49:08.847Z,70.00
2022-11-24T19:51:37.566Z,70.00
2022-11-24T19:54:06.166Z,70.00
2022-11-24T19:56:35.108Z,70.10
2022-11-24T19:59:02.756Z,70.10
2022-11-24T20:01:30.895Z,70.10
2022-11-24T20:04:00.530Z,70.10
2022-11-24T20:06:28.424Z,71.10
2022-11-24T20:08:56.741Z,70.30
2022-11-24T20:11:24.094Z,70.30
2022-11-24T20:13:51.457Z,70.30
2022-11-24T20:16:19.948Z,70.40
2022-11-24T20:18:47.836Z,70.40
2022-11-24T20:21:17.565Z,70.40
2022-11-24T20:23:46.150Z,70.50
2022-11-24T20:26:14.196Z,70.60
2022-11-24T20:28:41.759Z,70.70
2022-11-24T20:31:10.115Z,70.70
2022-11-24T20:33:37.685Z,70.80
2022-11-24T20:36:05.614Z,70.80
2022-11-24T20:38:34.423Z,71.00
2022-11-24T20:41:08.789Z,71.00
2022-11-24T20:43:37.030Z,71.00
2022-11-24T20:46:04.928Z,71.00
2022-11-24T20:48:33.428Z,71.10
2022-11-24T20:51:03.956Z,71.10
2022-11-24T20:53:33.024Z,71.10
2022-11-24T20:56:06.028Z,71.20
2022-11-24T20:58:34.327Z,71.30
2022-11-24T21:01:06.245Z,71.40
2022-11-24T21:03:36.215Z,71.30
2022-11-24T21:06:07.737Z,71.40
2022-11-24T21:08:37.548Z,71.50
2022-11-24T21:11:05.376Z,71.50
2022-11-24T21:13:33.061Z,71.50
2022-11-24T21:16:00.763Z,71.50
2022-11-24T21:18:28.299Z,72.20
2022-11-24T21:20:55.724Z,71.40
2022-11-24T21:23:23.252Z,71.40
2022-11-24T21:25:52.250Z,71.30
2022-11-24T21:28:19.896Z,71.30
2022-11-24T21:30:47.355Z,71.40
2022-11-24T21:33:14.743Z,71.40
2022-11-24T21:35:42.330Z,71.40
2022-11-24T21:38:09.926Z,71.40
2022-11-24T21:40:37.500Z,71.40
2022-11-24T21:43:06.315Z,71.40
2022-11-24T21:45:34.790Z,71.40
2022-11-24T21:48:02.141Z,71.40
2022-11-24T21:50:29.443Z,71.30
2022-11-24T21:53:00.639Z,71.30
2022-11-24T21:55:30.889Z,71.30
2022-11-24T21:57:58.375Z,71.30
2022-11-24T22:00:27.412Z,71.30
2022-11-24T22:02:55.119Z,71.20
2022-11-24T22:05:22.402Z,71.20
2022-11-24T22:07:49.737Z,71.20
2022-11-24T22:10:17.406Z,71.20
2022-11-24T22:12:44.724Z,71.20
2022-11-24T22:15:12.104Z,71.20
2022-11-24T22:17:41.096Z,71.20
2022-11-24T22:20:09.367Z,71.20
2022-11-24T22:22:36.672Z,71.20
2022-11-24T22:25:04.446Z,71.20
2022-11-24T22:27:31.732Z,71.20
2022-11-24T22:29:58.976Z,71.10
2022-11-24T22:32:26.268Z,71.10
2022-11-24T22:34:55.002Z,71.10
2022-11-24T22:37:22.347Z,71.10
2022-11-24T22:39:49.662Z,71.20
2022-11-24T22:42:16.927Z,71.10
2022-11-24T22:44:44.166Z,71.10
2022-11-24T22:47:11.554Z,71.10
2022-11-24T22:49:38.797Z,71.10
2022-11-24T22:52:07.505Z,71.00
2022-11-24T22:54:35.039Z,71.00
2022-11-24T22:57:02.679Z,71.00
2022-11-24T22:59:30.050Z,71.00
2022-11-24T23:01:57.382Z,70.40
2022-11-24T23:04:24.750Z,71.00
2022-11-24T23:06:52.073Z,71.00
2022-11-24T23:09:20.798Z,71.00
2022-11-24T23:11:48.032Z,70.40
2022-11-24T23:14:15.607Z,71.10
2022-11-24T23:16:42.978Z,71.10
2022-11-24T23:19:10.593Z,71.20
2022-11-24T23:21:38.246Z,71.20
2022-11-24T23:24:06.995Z,71.20
2022-11-24T23:26:36.879Z,71.20
2022-11-24T23:29:04.309Z,71.20
2022-11-24T23:31:31.620Z,71.20
2022-11-24T23:33:59.279Z,71.20
2022-11-24T23:36:26.476Z,71.30
2022-11-24T23:38:53.718Z,71.30
2022-11-24T23:41:21.903Z,71.50
2022-11-24T23:43:50.644Z,71.40
2022-11-24T23:46:18.528Z,71.50
2022-11-24T23:48:45.852Z,71.40
2022-11-24T23:51:13.743Z,71.40
2022-11-24T23:53:41.064Z,71.30
2022-11-24T23:56:08.401Z,71.40
2022-11-24T23:58:35.585Z,71.40
